Time;durP1;ratioP1;P1;durP2;ratioP2;P2;SDS_P1;SDS_P2;PMS_P1;PMS_P2;Temp;Humidity;BMP_temperature;BMP_pressure;BME280_temperature;BME280_humidity;BME280_pressure;Samples;Min_cycle;Max_cycle;Signal;HPM_P1;HPM_P2
2021/10/16 00:00:21;;;;;;;3.80;3.35;;;10.80;95.20;;;;;;5017263;28;20030;-81
2021/10/16 00:02:47;;;;;;;5.60;3.90;;;10.80;95.40;;;;;;5017484;28;20028;-82
2021/10/16 00:05:13;;;;;;;7.82;5.75;;;10.80;95.50;;;;;;5018078;28;20487;-81
2021/10/16 00:07:39;;;;;;;7.60;4.82;;;10.90;95.00;;;;;;5017336;28;20033;-81
2021/10/16 00:10:06;;;;;;;7.50;5.00;;;10.80;94.80;;;;;;5016811;28;20029;-81
2021/10/16 00:12:32;;;;;;;3.90;3.20;;;10.80;94.90;;;;;;5016671;28;20057;-81
2021/10/16 00:14:58;;;;;;;5.40;4.05;;;10.80;95.10;;;;;;5017397;28;20034;-81
2021/10/16 00:17:23;;;;;;;5.30;3.92;;;10.80;95.20;;;;;;5017123;28;20033;-81
2021/10/16 00:19:49;;;;;;;5.75;4.38;;;10.80;95.30;;;;;;5015327;28;20499;-81
2021/10/16 00:22:15;;;;;;;5.90;3.63;;;10.80;95.30;;;;;;4998185;28;20080;-81
2021/10/16 00:24:41;;;;;;;4.28;3.28;;;10.80;95.30;;;;;;5016466;28;20121;-81
2021/10/16 00:27:06;;;;;;;9.10;5.95;;;10.80;95.40;;;;;;5016070;28;20454;-81
2021/10/16 00:29:32;;;;;;;7.95;4.85;;;10.80;95.00;;;;;;5016936;28;20060;-81
2021/10/16 00:31:59;;;;;;;6.80;6.07;;;10.80;95.10;;;;;;5020324;28;20426;-81
2021/10/16 00:34:24;;;;;;;8.60;5.63;;;10.80;95.00;;;;;;5015556;28;20037;-80
2021/10/16 00:36:50;;;;;;;6.50;5.07;;;10.80;95.10;;;;;;5015978;28;20045;-80
2021/10/16 00:39:16;;;;;;;7.78;5.60;;;10.70;95.20;;;;;;5029660;28;20029;-80
2021/10/16 00:41:41;;;;;;;8.05;5.60;;;10.70;95.40;;;;;;5025213;28;20046;-80
2021/10/16 00:44:16;;;;;;;7.47;5.60;;;10.70;95.40;;;;;;4998506;28;20026;-80
2021/10/16 00:46:42;;;;;;;5.40;4.80;;;10.70;95.50;;;;;;5016860;28;20014;-81
2021/10/16 00:49:09;;;;;;;6.65;5.18;;;10.70;95.70;;;;;;5026806;28;20021;-80
2021/10/16 00:51:35;;;;;;;7.65;5.10;;;10.60;95.80;;;;;;5036123;28;20478;-82
2021/10/16 00:54:01;;;;;;;6.43;5.40;;;10.60;95.90;;;;;;5036631;28;20060;-82
2021/10/16 00:56:28;;;;;;;8.10;5.50;;;10.60;96.10;;;;;;5037183;28;20093;-81
2021/10/16 00:58:56;;;;;;;10.13;6.20;;;10.50;96.30;;;;;;5030739;28;20053;-81
2021/10/16 01:01:22;;;;;;;8.88;5.95;;;10.50;96.50;;;;;;5017144;28;20022;-82
2021/10/16 01:03:48;;;;;;;7.13;5.65;;;10.40;96.60;;;;;;5017319;28;20057;-81
2021/10/16 01:06:14;;;;;;;8.88;6.38;;;10.40;96.80;;;;;;5016667;28;20124;-81
2021/10/16 01:08:40;;;;;;;9.60;6.75;;;10.40;96.90;;;;;;5000374;28;20026;-81
2021/10/16 01:11:07;;;;;;;8.75;6.10;;;10.30;97.00;;;;;;5030877;28;20022;-81
2021/10/16 01:13:33;;;;;;;10.50;7.40;;;10.30;97.10;;;;;;5016926;28;20495;-81
2021/10/16 01:15:59;;;;;;;7.75;6.22;;;10.40;97.20;;;;;;5016561;28;20049;-81
2021/10/16 01:18:26;;;;;;;9.20;6.75;;;10.30;97.20;;;;;;5016871;28;20026;-81
2021/10/16 01:21:04;;;;;;;10.75;7.22;;;10.40;97.30;;;;;;5016323;28;20068;-81
2021/10/16 01:23:32;;;;;;;9.75;6.82;;;10.30;97.30;;;;;;4998857;28;20026;-80
2021/10/16 01:25:59;;;;;;;9.45;6.82;;;10.30;97.40;;;;;;5016048;28;20030;-80
2021/10/16 01:28:26;;;;;;;8.27;5.20;;;10.30;97.50;;;;;;5016914;28;20045;-81
2021/10/16 01:30:53;;;;;;;5.85;4.80;;;10.30;97.60;;;;;;5029896;28;20033;-80
2021/10/16 01:33:19;;;;;;;9.13;5.35;;;10.20;97.60;;;;;;5033364;28;20025;-80
2021/10/16 01:36:05;;;;;;;11.05;6.75;;;10.20;97.70;;;;;;5038049;28;20420;-81
2021/10/16 01:38:33;;;;;;;9.50;5.93;;;10.20;97.80;;;;;;5040326;28;20222;-80
2021/10/16 01:40:59;;;;;;;7.13;5.45;;;10.20;97.90;;;;;;5027469;28;20040;-81
2021/10/16 01:43:26;;;;;;;9.38;5.80;;;10.20;97.90;;;;;;5016174;28;20083;-82
2021/10/16 01:45:53;;;;;;;10.68;7.82;;;10.20;97.90;;;;;;5017725;28;20085;-80
2021/10/16 01:48:26;;;;;;;8.30;6.53;;;10.20;97.90;;;;;;5019500;28;20096;-81
2021/10/16 01:50:53;;;;;;;10.00;6.25;;;10.20;98.00;;;;;;5023149;28;20109;-81
2021/10/16 01:53:20;;;;;;;8.55;5.95;;;10.30;98.00;;;;;;5038965;28;20025;-86
2021/10/16 01:55:45;;;;;;;7.88;5.72;;;10.30;98.00;;;;;;5041851;28;20025;-81
2021/10/16 01:58:14;;;;;;;7.40;5.20;;;10.30;98.10;;;;;;5046622;28;20014;-79
2021/10/16 02:00:44;;;;;;;7.28;5.32;;;10.30;98.10;;;;;;5057943;28;20013;-80
2021/10/16 02:03:11;;;;;;;5.43;4.75;;;10.20;98.10;;;;;;5058099;28;20063;-81
2021/10/16 02:05:44;;;;;;;5.43;4.57;;;10.20;98.20;;;;;;5048245;28;20032;-79
2021/10/16 02:08:12;;;;;;;6.82;4.70;;;10.20;98.30;;;;;;5048989;28;20052;-79
2021/10/16 02:10:38;;;;;;;5.35;3.95;;;10.30;98.30;;;;;;5046282;28;20419;-81
2021/10/16 02:13:05;;;;;;;4.15;3.65;;;10.30;98.40;;;;;;5003785;28;20656;-81
2021/10/16 02:15:31;;;;;;;4.63;4.15;;;10.30;98.40;;;;;;5002810;28;20033;-80
2021/10/16 02:17:57;;;;;;;6.40;5.22;;;10.30;98.40;;;;;;5001700;28;20030;-81
2021/10/16 02:20:23;;;;;;;9.80;6.63;;;10.30;98.40;;;;;;5019960;28;20049;-81
2021/10/16 02:22:49;;;;;;;8.30;6.75;;;10.30;98.60;;;;;;5034439;28;20033;-80
2021/10/16 02:25:15;;;;;;;9.45;6.70;;;10.20;98.80;;;;;;5040344;28;20079;-82
2021/10/16 02:27:41;;;;;;;8.32;6.15;;;10.20;99.00;;;;;;5039559;28;20021;-81
2021/10/16 02:30:08;;;;;;;8.40;6.65;;;10.20;99.00;;;;;;5040147;28;20081;-81
2021/10/16 02:32:35;;;;;;;10.40;6.90;;;10.20;99.10;;;;;;5011259;28;20125;-81
2021/10/16 02:35:02;;;;;;;8.48;6.35;;;10.20;99.10;;;;;;5019714;28;20041;-81
2021/10/16 02:37:27;;;;;;;7.97;6.07;;;10.20;99.20;;;;;;5021077;28;20022;-79
2021/10/16 02:39:53;;;;;;;7.40;5.90;;;10.20;99.30;;;;;;5025327;28;20152;-79
2021/10/16 02:42:19;;;;;;;7.30;5.60;;;10.20;99.50;;;;;;5023109;28;20022;-81
2021/10/16 02:44:45;;;;;;;7.68;5.85;;;10.20;99.60;;;;;;5028200;28;20097;-79
2021/10/16 02:47:11;;;;;;;9.43;7.60;;;10.20;99.60;;;;;;5028703;28;20033;-80
2021/10/16 02:49:36;;;;;;;7.75;5.82;;;10.20;99.70;;;;;;5010449;28;20033;-81
2021/10/16 02:52:02;;;;;;;14.55;8.27;;;10.20;99.70;;;;;;5028584;28;20119;-78
2021/10/16 02:54:28;;;;;;;14.38;10.15;;;10.10;99.80;;;;;;5027825;28;20539;-79
2021/10/16 02:56:54;;;;;;;15.00;10.02;;;10.10;99.90;;;;;;5026781;28;20033;-79
2021/10/16 02:59:19;;;;;;;14.50;9.52;;;10.10;99.90;;;;;;5020201;28;20032;-80
2021/10/16 03:01:45;;;;;;;9.63;7.57;;;10.10;99.90;;;;;;5004535;28;20047;-80
2021/10/16 03:04:11;;;;;;;9.00;6.68;;;10.10;99.90;;;;;;5018778;28;20105;-79
2021/10/16 03:06:37;;;;;;;9.73;7.45;;;10.10;99.90;;;;;;4999953;28;20030;-80
2021/10/16 03:09:02;;;;;;;11.27;8.05;;;10.10;99.90;;;;;;5018555;28;20036;-81
2021/10/16 03:11:28;;;;;;;10.90;7.32;;;10.10;99.90;;;;;;5001797;28;20101;-82
2021/10/16 03:13:54;;;;;;;11.38;7.93;;;10.10;99.90;;;;;;5019329;28;20089;-80
2021/10/16 03:16:20;;;;;;;18.13;9.90;;;10.10;99.90;;;;;;5025438;28;20033;-81
2021/10/16 03:18:46;;;;;;;17.02;10.88;;;10.10;99.90;;;;;;5021217;28;20033;-80
2021/10/16 03:21:12;;;;;;;13.75;10.07;;;10.10;99.90;;;;;;5020504;28;20033;-81
2021/10/16 03:23:38;;;;;;;13.50;9.13;;;10.00;99.90;;;;;;5034093;28;20124;-79
2021/10/16 03:26:03;;;;;;;13.13;9.35;;;10.00;99.90;;;;;;5041048;28;20533;-81
2021/10/16 03:28:29;;;;;;;13.25;8.77;;;9.90;99.90;;;;;;5039307;28;20025;-80
2021/10/16 03:30:55;;;;;;;9.88;7.97;;;9.90;99.90;;;;;;5041433;28;20022;-80
2021/10/16 03:33:21;;;;;;;11.38;7.85;;;9.90;99.90;;;;;;5040431;28;20030;-78
2021/10/16 03:35:46;;;;;;;8.75;6.60;;;9.90;99.90;;;;;;5026271;28;20029;-82
2021/10/16 03:38:12;;;;;;;5.88;5.00;;;9.90;99.90;;;;;;5021296;28;20080;-81
2021/10/16 03:40:38;;;;;;;5.78;4.82;;;9.90;99.90;;;;;;5021910;28;20057;-81
2021/10/16 03:43:04;;;;;;;5.90;4.75;;;10.00;99.90;;;;;;5027575;28;20034;-79
2021/10/16 03:45:29;;;;;;;6.57;4.88;;;10.00;99.90;;;;;;5024250;28;20021;-79
2021/10/16 03:47:55;;;;;;;7.25;5.40;;;10.10;99.90;;;;;;5022537;28;20026;-81
2021/10/16 03:50:21;;;;;;;9.85;7.00;;;10.10;99.90;;;;;;5020940;28;20033;-78
2021/10/16 03:52:46;;;;;;;8.50;7.10;;;10.10;99.90;;;;;;5024472;28;20083;-79
2021/10/16 03:55:12;;;;;;;8.65;6.80;;;10.10;99.90;;;;;;5019169;28;20044;-81
2021/10/16 03:57:38;;;;;;;7.40;5.82;;;10.00;99.90;;;;;;5037647;28;20108;-81
2021/10/16 04:00:11;;;;;;;12.13;7.45;;;10.00;99.90;;;;;;5038737;28;20030;-80
2021/10/16 04:02:38;;;;;;;12.30;8.25;;;10.00;99.90;;;;;;5021076;28;20033;-80
2021/10/16 04:05:04;;;;;;;14.10;9.02;;;10.00;99.90;;;;;;5027656;28;20018;-80
2021/10/16 04:07:29;;;;;;;14.77;9.40;;;9.90;99.90;;;;;;5018635;28;20037;-80
2021/10/16 04:09:55;;;;;;;16.02;9.93;;;9.80;99.90;;;;;;5019168;28;20036;-78
2021/10/16 04:12:21;;;;;;;13.35;9.88;;;9.80;99.90;;;;;;5020526;28;20541;-78
2021/10/16 04:14:46;;;;;;;13.55;9.55;;;9.70;99.90;;;;;;5020763;28;20039;-80
2021/10/16 04:17:12;;;;;;;13.38;9.18;;;9.70;99.90;;;;;;5037178;28;20075;-81
2021/10/16 04:19:38;;;;;;;11.95;9.00;;;9.60;99.90;;;;;;5033023;28;20106;-78
2021/10/16 04:22:03;;;;;;;13.55;9.73;;;9.60;99.90;;;;;;5034939;28;20025;-76
2021/10/16 04:24:29;;;;;;;12.93;9.95;;;9.50;99.90;;;;;;5033244;28;20025;-79
2021/10/16 04:26:55;;;;;;;13.30;9.68;;;9.40;99.90;;;;;;5033168;28;20029;-79
2021/10/16 04:29:24;;;;;;;11.68;8.48;;;9.40;99.90;;;;;;5035279;28;20021;-78
2021/10/16 04:31:50;;;;;;;11.82;8.60;;;9.40;99.90;;;;;;5020911;28;20030;-80
2021/10/16 04:34:15;;;;;;;10.77;7.60;;;9.30;99.90;;;;;;5020198;28;20101;-78
2021/10/16 04:36:41;;;;;;;11.60;7.38;;;9.30;99.90;;;;;;5029629;28;20376;-78
2021/10/16 04:39:07;;;;;;;11.65;7.50;;;9.30;99.90;;;;;;5038068;28;20029;-79
2021/10/16 04:41:35;;;;;;;9.25;6.15;;;9.30;99.90;;;;;;5027619;28;20026;-78
2021/10/16 04:44:00;;;;;;;9.90;6.53;;;9.40;99.90;;;;;;5029286;28;20021;-78
2021/10/16 04:46:26;;;;;;;7.93;5.93;;;9.40;99.90;;;;;;5039220;28;20026;-80
2021/10/16 04:48:52;;;;;;;9.32;6.22;;;9.40;99.90;;;;;;5007572;28;20447;-78
2021/10/16 04:51:18;;;;;;;8.98;6.78;;;9.50;99.90;;;;;;5019159;28;20046;-78
2021/10/16 04:53:44;;;;;;;9.65;7.32;;;9.40;99.90;;;;;;5021672;28;20502;-80
2021/10/16 04:56:10;;;;;;;11.15;8.23;;;9.50;99.90;;;;;;4999938;28;20021;-79
2021/10/16 04:58:36;;;;;;;10.48;8.43;;;9.40;99.90;;;;;;5000489;28;20513;-79
2021/10/16 05:01:01;;;;;;;13.43;9.38;;;9.40;99.90;;;;;;5016875;28;20045;-79
2021/10/16 05:03:27;;;;;;;11.93;8.90;;;9.40;99.90;;;;;;5000697;28;20018;-79
2021/10/16 05:05:53;;;;;;;13.00;8.45;;;9.30;99.90;;;;;;5030217;28;20514;-79
2021/10/16 05:08:20;;;;;;;11.95;9.07;;;9.30;99.90;;;;;;5032133;28;20024;-80
2021/10/16 05:10:45;;;;;;;12.50;8.32;;;9.30;99.90;;;;;;5016518;28;20034;-80
2021/10/16 05:13:11;;;;;;;11.18;8.30;;;9.30;99.90;;;;;;5012945;28;20044;-78
2021/10/16 05:15:37;;;;;;;10.63;7.93;;;9.20;99.90;;;;;;5030849;28;20435;-77
2021/10/16 05:18:03;;;;;;;10.30;7.60;;;9.20;99.90;;;;;;5031354;28;20030;-78
2021/10/16 05:20:29;;;;;;;11.88;8.63;;;9.30;99.90;;;;;;5033139;28;20488;-78
2021/10/16 05:22:55;;;;;;;10.18;7.85;;;9.30;99.90;;;;;;5032510;28;20470;-78
2021/10/16 05:25:20;;;;;;;11.98;8.65;;;9.30;99.90;;;;;;5036147;28;20025;-78
2021/10/16 05:27:49;;;;;;;10.52;7.68;;;9.30;99.90;;;;;;5035763;28;20159;-78
2021/10/16 05:30:16;;;;;;;8.30;6.13;;;9.30;99.90;;;;;;5038870;28;20025;-78
2021/10/16 05:32:42;;;;;;;8.48;6.10;;;9.30;99.90;;;;;;5028085;28;20068;-78
2021/10/16 05:35:07;;;;;;;7.43;5.75;;;9.40;99.90;;;;;;5026982;28;20026;-77
2021/10/16 05:37:33;;;;;;;10.10;7.20;;;9.40;99.90;;;;;;5012620;28;20425;-79
2021/10/16 05:39:59;;;;;;;14.48;8.73;;;9.40;99.90;;;;;;5017969;28;20068;-77
2021/10/16 05:42:25;;;;;;;10.82;8.88;;;9.40;99.90;;;;;;5018047;28;20014;-78
2021/10/16 05:44:50;;;;;;;10.35;7.72;;;9.40;99.90;;;;;;5026438;28;20086;-78
2021/10/16 05:47:16;;;;;;;10.95;7.97;;;9.40;99.90;;;;;;5033013;28;20045;-78
2021/10/16 05:49:42;;;;;;;10.30;7.78;;;9.40;99.90;;;;;;5038116;28;20033;-78
2021/10/16 05:52:08;;;;;;;12.40;8.68;;;9.40;99.90;;;;;;5036349;28;20407;-79
2021/10/16 05:54:33;;;;;;;15.15;10.00;;;9.40;99.90;;;;;;5039968;28;20041;-79
2021/10/16 05:57:00;;;;;;;14.60;9.70;;;9.40;99.90;;;;;;5022947;28;20037;-78
2021/10/16 05:59:25;;;;;;;15.93;11.13;;;9.40;99.90;;;;;;5025595;28;20380;-80
2021/10/16 06:01:51;;;;;;;12.40;8.88;;;9.40;99.90;;;;;;5019058;28;20080;-77
2021/10/16 06:04:17;;;;;;;13.80;8.88;;;9.50;99.90;;;;;;5031790;28;20049;-79
2021/10/16 06:06:42;;;;;;;10.73;7.20;;;9.50;99.90;;;;;;5027054;28;20037;-78
2021/10/16 06:09:08;;;;;;;11.25;7.72;;;9.60;99.90;;;;;;5042142;28;20014;-79
2021/10/16 06:11:34;;;;;;;10.30;6.80;;;9.70;99.90;;;;;;5017757;28;20541;-78
2021/10/16 06:13:59;;;;;;;7.68;6.03;;;9.70;99.90;;;;;;5020869;28;20022;-80
2021/10/16 06:16:25;;;;;;;7.80;5.95;;;9.80;99.90;;;;;;5027343;28;20018;-76
2021/10/16 06:18:51;;;;;;;7.53;5.75;;;9.90;99.90;;;;;;5026432;28;20030;-79
2021/10/16 06:21:16;;;;;;;8.57;5.95;;;10.00;99.90;;;;;;5022080;28;20104;-79
2021/10/16 06:23:42;;;;;;;6.70;5.32;;;10.00;99.90;;;;;;5033387;28;20026;-79
2021/10/16 06:26:08;;;;;;;7.72;6.22;;;10.10;99.90;;;;;;5034184;28;20105;-77
2021/10/16 06:28:35;;;;;;;10.40;7.43;;;10.20;99.90;;;;;;5029620;28;20033;-78
2021/10/16 06:31:01;;;;;;;9.38;7.15;;;10.10;99.90;;;;;;5034942;28;20103;-79
2021/10/16 06:33:26;;;;;;;11.73;7.40;;;10.10;99.90;;;;;;5044788;28;20026;-79
2021/10/16 06:35:53;;;;;;;9.88;7.60;;;10.10;99.90;;;;;;5036764;28;20065;-79
2021/10/16 06:38:19;;;;;;;8.82;6.55;;;10.20;99.90;;;;;;5027245;28;20059;-78
2021/10/16 06:40:45;;;;;;;11.30;7.35;;;10.20;99.90;;;;;;5013896;28;20070;-78
2021/10/16 06:43:11;;;;;;;9.13;5.80;;;10.30;99.90;;;;;;5007748;28;20385;-78
2021/10/16 06:45:37;;;;;;;6.80;5.60;;;10.50;99.90;;;;;;5019409;28;20030;-77
2021/10/16 06:48:03;;;;;;;7.75;5.22;;;10.50;99.90;;;;;;5031113;28;20026;-79
2021/10/16 06:50:29;;;;;;;8.55;6.38;;;10.60;99.90;;;;;;5041431;28;20026;-79
2021/10/16 06:52:54;;;;;;;8.15;5.78;;;10.60;99.90;;;;;;5037730;28;20127;-79
2021/10/16 06:55:20;;;;;;;7.65;6.25;;;10.70;99.90;;;;;;5018056;28;20029;-78
2021/10/16 06:57:46;;;;;;;8.32;6.90;;;10.70;99.90;;;;;;5035200;28;20029;-77
2021/10/16 07:00:12;;;;;;;19.08;12.55;;;10.60;99.90;;;;;;5016550;28;20066;-79
2021/10/16 07:02:38;;;;;;;19.65;12.60;;;10.50;99.90;;;;;;5004466;28;20025;-79
2021/10/16 07:05:05;;;;;;;17.13;12.35;;;10.40;99.90;;;;;;5021582;28;20037;-77
2021/10/16 07:07:31;;;;;;;16.90;11.73;;;10.40;99.90;;;;;;5022572;28;20022;-77
2021/10/16 07:09:56;;;;;;;19.00;11.95;;;10.40;99.90;;;;;;5000497;28;20079;-79
2021/10/16 07:12:23;;;;;;;20.75;13.57;;;10.40;99.90;;;;;;5019140;28;20498;-77
2021/10/16 07:14:49;;;;;;;18.38;12.77;;;10.40;99.90;;;;;;5019347;28;20030;-78
2021/10/16 07:17:15;;;;;;;17.88;12.10;;;10.40;99.90;;;;;;5035885;28;20038;-78
2021/10/16 07:19:41;;;;;;;16.38;12.25;;;10.40;99.90;;;;;;5034559;28;20025;-78
2021/10/16 07:22:06;;;;;;;22.05;13.23;;;10.40;99.90;;;;;;5035690;28;20385;-77
2021/10/16 07:24:32;;;;;;;16.85;12.50;;;10.50;99.90;;;;;;5037741;28;20033;-77
2021/10/16 07:26:58;;;;;;;19.88;12.93;;;10.60;99.90;;;;;;5016023;28;20427;-78
2021/10/16 07:29:24;;;;;;;15.05;11.02;;;10.60;99.90;;;;;;5023480;28;20026;-79
2021/10/16 07:31:50;;;;;;;19.20;13.75;;;10.80;99.90;;;;;;5019405;28;20040;-78
2021/10/16 07:34:18;;;;;;;16.00;11.90;;;10.90;99.90;;;;;;5023294;28;20335;-79
2021/10/16 07:36:44;;;;;;;13.70;10.45;;;11.00;99.90;;;;;;5034965;28;20022;-79
2021/10/16 07:39:10;;;;;;;13.85;10.35;;;11.10;99.90;;;;;;5035232;28;20079;-79
2021/10/16 07:41:36;;;;;;;13.25;10.07;;;11.40;99.90;;;;;;5025651;28;20487;-79
2021/10/16 07:44:04;;;;;;;15.65;11.02;;;11.60;99.10;;;;;;5014720;28;20018;-79
2021/10/16 07:46:30;;;;;;;15.43;10.65;;;11.60;98.40;;;;;;5021993;28;20565;-77
2021/10/16 07:48:56;;;;;;;12.15;8.88;;;11.50;98.40;;;;;;5019527;28;20026;-78
2021/10/16 07:51:21;;;;;;;11.88;8.70;;;11.60;98.70;;;;;;5026684;28;20077;-78
2021/10/16 07:53:47;;;;;;;16.85;10.52;;;11.70;98.40;;;;;;5039104;28;20502;-78
2021/10/16 07:56:13;;;;;;;14.25;10.70;;;11.80;98.00;;;;;;5023354;28;20490;-78
2021/10/16 07:58:40;;;;;;;18.90;11.88;;;12.00;97.50;;;;;;5017682;28;20026;-79
2021/10/16 08:01:09;;;;;;;12.60;9.50;;;12.30;96.90;;;;;;5019477;28;20033;-79
2021/10/16 08:03:35;;;;;;;11.98;9.55;;;12.40;96.30;;;;;;4998334;28;20089;-77
2021/10/16 08:06:02;;;;;;;15.02;9.90;;;12.40;96.00;;;;;;5017686;28;20029;-79
2021/10/16 08:08:28;;;;;;;13.77;11.05;;;12.60;95.40;;;;;;5040527;28;20059;-80
2021/10/16 08:10:54;;;;;;;19.35;12.40;;;12.50;95.30;;;;;;5042450;28;20028;-77
2021/10/16 08:13:20;;;;;;;14.43;10.65;;;12.50;94.90;;;;;;5015359;28;20053;-78
2021/10/16 08:15:46;;;;;;;16.95;13.07;;;12.70;94.90;;;;;;5024389;28;20037;-78
2021/10/16 08:18:12;;;;;;;18.92;12.95;;;13.00;93.90;;;;;;5016688;28;20037;-78
2021/10/16 08:20:38;;;;;;;15.00;11.13;;;13.20;93.60;;;;;;5018385;28;20030;-77
2021/10/16 08:23:05;;;;;;;14.40;10.65;;;13.30;93.20;;;;;;5034175;28;20083;-78
2021/10/16 08:25:31;;;;;;;12.13;9.15;;;13.20;93.20;;;;;;5034012;28;20026;-78
2021/10/16 08:27:58;;;;;;;17.10;11.15;;;13.40;93.30;;;;;;5032277;28;20026;-78
2021/10/16 08:30:24;;;;;;;14.13;11.00;;;13.40;92.80;;;;;;5034145;28;20391;-77
2021/10/16 08:32:50;;;;;;;17.60;12.65;;;13.40;92.70;;;;;;5034516;28;20029;-78
2021/10/16 08:35:15;;;;;;;15.10;10.80;;;13.30;92.60;;;;;;5033656;28;20032;-78
2021/10/16 08:37:41;;;;;;;16.10;12.38;;;13.40;92.80;;;;;;5024882;28;20083;-79
2021/10/16 08:40:07;;;;;;;16.50;12.00;;;13.50;92.10;;;;;;5034735;28;20082;-78
2021/10/16 08:42:34;;;;;;;19.25;13.10;;;13.40;91.90;;;;;;5002906;28;20037;-79
2021/10/16 08:45:01;;;;;;;20.52;13.07;;;13.20;92.50;;;;;;4998981;28;20446;-78
2021/10/16 08:47:36;;;;;;;19.17;13.02;;;13.30;93.10;;;;;;5018390;28;20025;-77
2021/10/16 08:50:07;;;;;;;15.07;10.95;;;13.70;92.30;;;;;;4978695;28;20041;-78
2021/10/16 08:52:34;;;;;;;17.98;11.85;;;13.90;91.80;;;;;;5002046;28;20079;-78
2021/10/16 08:54:59;;;;;;;16.27;12.32;;;14.30;91.20;;;;;;5021815;28;20044;-78
2021/10/16 08:57:33;;;;;;;14.85;11.20;;;14.50;90.00;;;;;;4997465;28;20038;-78
2021/10/16 09:00:19;;;;;;;15.35;10.60;;;14.70;89.30;;;;;;5007243;28;20025;-78
2021/10/16 09:02:44;;;;;;;14.43;10.98;;;14.90;88.30;;;;;;5004647;28;20441;-78
2021/10/16 09:05:12;;;;;;;14.98;10.13;;;15.10;86.70;;;;;;5015142;28;20022;-79
2021/10/16 09:07:38;;;;;;;11.10;9.88;;;15.20;85.30;;;;;;4999581;28;20029;-78
2021/10/16 09:10:20;;;;;;;19.08;12.18;;;15.20;84.50;;;;;;5033826;28;20405;-79
2021/10/16 09:12:46;;;;;;;18.00;10.93;;;15.20;82.90;;;;;;5018823;28;20052;-77
2021/10/16 09:15:22;;;;;;;14.90;10.00;;;15.10;81.80;;;;;;5033964;28;20490;-79
2021/10/16 09:18:05;;;;;;;11.20;8.60;;;15.10;83.90;;;;;;5033435;28;20029;-78
2021/10/16 09:20:36;;;;;;;8.98;7.07;;;15.40;83.80;;;;;;5016267;28;20112;-77
2021/10/16 09:23:12;;;;;;;13.68;8.82;;;16.00;81.90;;;;;;5032123;28;20049;-77
2021/10/16 09:25:38;;;;;;;13.30;9.65;;;16.10;79.70;;;;;;5013883;28;20018;-78
2021/10/16 09:28:19;;;;;;;15.13;10.35;;;16.20;78.10;;;;;;5016589;28;20025;-77
2021/10/16 09:30:48;;;;;;;16.38;9.57;;;16.30;77.80;;;;;;5035362;28;20040;-78
2021/10/16 09:33:15;;;;;;;12.13;9.63;;;16.40;77.20;;;;;;5034935;28;20048;-79
2021/10/16 09:35:41;;;;;;;12.75;9.85;;;16.20;76.70;;;;;;5019456;28;20097;-77
2021/10/16 09:38:07;;;;;;;13.05;10.18;;;15.70;77.40;;;;;;5014019;28;20045;-77
2021/10/16 09:40:40;;;;;;;12.90;9.00;;;15.30;79.30;;;;;;5012949;28;20499;-78
2021/10/16 09:43:19;;;;;;;16.92;10.55;;;15.30;80.90;;;;;;5016547;28;21419;-78
2021/10/16 09:45:46;;;;;;;12.20;9.02;;;15.50;79.70;;;;;;5022037;28;20080;-79
2021/10/16 09:48:29;;;;;;;13.48;9.20;;;15.60;78.40;;;;;;4998096;28;20402;-79
2021/10/16 09:50:59;;;;;;;14.55;9.88;;;15.30;77.70;;;;;;5005230;28;20049;-78
2021/10/16 09:53:25;;;;;;;13.38;9.30;;;15.20;78.50;;;;;;5033187;28;20025;-78
2021/10/16 09:55:53;;;;;;;12.13;8.70;;;15.40;79.60;;;;;;5025743;28;20482;-78
2021/10/16 09:58:22;;;;;;;10.20;8.40;;;15.60;79.20;;;;;;5032273;28;20041;-78
2021/10/16 10:00:49;;;;;;;9.82;7.65;;;15.70;78.20;;;;;;4992774;28;20025;-79
2021/10/16 10:03:16;;;;;;;11.80;7.47;;;15.90;77.70;;;;;;4998104;28;20021;-78
2021/10/16 10:05:44;;;;;;;7.57;5.88;;;16.00;75.20;;;;;;5017033;28;20037;-77
2021/10/16 10:08:11;;;;;;;9.77;6.88;;;16.10;74.30;;;;;;4994706;28;20028;-78
2021/10/16 10:10:37;;;;;;;9.05;6.40;;;16.20;75.10;;;;;;5013046;28;20417;-78
2021/10/16 10:13:03;;;;;;;10.55;7.72;;;16.00;74.40;;;;;;5018324;28;20113;-78
2021/10/16 10:15:29;;;;;;;8.27;7.20;;;15.80;75.60;;;;;;5017283;28;20057;-78
2021/10/16 10:17:55;;;;;;;10.93;7.40;;;15.60;76.10;;;;;;5034860;28;20044;-79
2021/10/16 10:20:26;;;;;;;11.38;7.22;;;15.50;76.40;;;;;;5019842;28;20808;-78
2021/10/16 10:22:52;;;;;;;9.35;6.95;;;15.60;75.60;;;;;;4979877;28;20022;-78
2021/10/16 10:25:21;;;;;;;10.73;7.80;;;15.40;76.60;;;;;;5002287;28;20461;-78
2021/10/16 10:27:47;;;;;;;12.98;6.85;;;15.10;76.80;;;;;;5037755;28;20014;-79
2021/10/16 10:30:39;;;;;;;9.00;7.00;;;15.00;78.50;;;;;;5033906;28;20026;-79
2021/10/16 10:33:20;;;;;;;10.10;6.65;;;14.90;79.40;;;;;;5000562;28;20070;-78
2021/10/16 10:35:58;;;;;;;10.23;6.78;;;14.80;80.00;;;;;;5035914;28;20057;-80
2021/10/16 10:38:36;;;;;;;11.13;7.72;;;14.80;80.50;;;;;;5023654;28;20053;-79
2021/10/16 10:41:23;;;;;;;9.50;7.45;;;14.90;79.90;;;;;;5000874;28;20030;-79
2021/10/16 10:43:52;;;;;;;7.60;5.78;;;14.60;79.40;;;;;;5020337;28;20041;-77
2021/10/16 10:46:22;;;;;;;6.60;5.68;;;14.40;78.90;;;;;;5032026;28;20089;-76
2021/10/16 10:48:49;;;;;;;10.07;5.55;;;14.10;79.10;;;;;;5032442;28;20386;-77
2021/10/16 10:51:36;;;;;;;9.00;5.85;;;14.20;81.10;;;;;;5023641;28;20029;-83
2021/10/16 10:54:16;;;;;;;6.65;5.28;;;14.80;78.00;;;;;;5007047;28;20038;-80
2021/10/16 10:56:45;;;;;;;7.50;5.30;;;15.20;77.10;;;;;;5010232;28;20057;-79
2021/10/16 10:59:14;;;;;;;11.20;7.00;;;15.30;75.10;;;;;;4980786;28;20026;-80
2021/10/16 11:01:59;;;;;;;7.57;5.82;;;15.00;75.90;;;;;;4991543;28;20041;-77
2021/10/16 11:04:35;;;;;;;8.27;6.05;;;14.80;77.10;;;;;;5021838;28;20029;-76
2021/10/16 11:07:04;;;;;;;6.63;4.47;;;14.80;78.70;;;;;;5025196;28;20033;-80
2021/10/16 11:09:30;;;;;;;5.53;4.00;;;15.10;79.20;;;;;;5019050;28;20089;-78
2021/10/16 11:11:56;;;;;;;8.35;5.35;;;15.70;77.80;;;;;;5026464;28;20033;-78
2021/10/16 11:14:43;;;;;;;4.88;3.70;;;16.10;73.70;;;;;;5034080;28;20025;-79
2021/10/16 11:17:12;;;;;;;6.60;4.47;;;16.50;70.20;;;;;;5035652;28;20109;-79
2021/10/16 11:19:55;;;;;;;5.03;3.80;;;16.40;67.50;;;;;;5036510;28;20037;-77
2021/10/16 11:22:24;;;;;;;3.45;3.17;;;16.20;69.60;;;;;;5023705;28;20097;-80
2021/10/16 11:24:59;;;;;;;4.60;3.95;;;16.10;69.30;;;;;;5022206;28;20041;-78
2021/10/16 11:27:25;;;;;;;4.93;3.33;;;16.10;69.40;;;;;;5015408;28;20034;-78
2021/10/16 11:29:51;;;;;;;5.57;4.40;;;16.10;70.10;;;;;;5016903;28;20053;-77
2021/10/16 11:32:22;;;;;;;9.35;5.82;;;16.10;71.70;;;;;;5015756;28;20034;-77
2021/10/16 11:35:05;;;;;;;8.38;6.13;;;16.30;73.20;;;;;;5018927;28;20090;-77
2021/10/16 11:37:36;;;;;;;7.75;6.25;;;16.20;73.70;;;;;;5012586;28;20030;-77
2021/10/16 11:40:06;;;;;;;8.88;7.28;;;16.00;74.70;;;;;;5018480;28;20096;-78
2021/10/16 11:42:32;;;;;;;10.00;6.55;;;15.80;74.90;;;;;;5015064;28;20026;-77
2021/10/16 11:44:58;;;;;;;9.80;6.43;;;15.50;77.00;;;;;;5015801;28;20034;-79
2021/10/16 11:47:25;;;;;;;7.28;6.53;;;15.30;77.60;;;;;;5014051;28;20041;-77
2021/10/16 11:49:51;;;;;;;7.88;5.82;;;15.20;77.50;;;;;;5014475;28;20026;-78
2021/10/16 11:52:25;;;;;;;6.03;4.97;;;15.00;78.70;;;;;;5014000;28;20080;-78
2021/10/16 11:55:23;;;;;;;8.18;5.93;;;14.90;79.70;;;;;;5013544;28;20212;-76
2021/10/16 11:57:50;;;;;;;6.95;5.10;;;14.90;78.70;;;;;;5014998;28;20077;-77
2021/10/16 12:00:22;;;;;;;8.90;6.15;;;14.80;79.20;;;;;;5013889;28;20030;-77
2021/10/16 12:02:48;;;;;;;7.97;5.73;;;14.80;78.10;;;;;;4997028;28;20022;-76
2021/10/16 12:05:19;;;;;;;8.38;4.40;;;14.90;78.40;;;;;;5014203;28;20253;-77
2021/10/16 12:07:48;;;;;;;5.60;4.53;;;15.10;77.40;;;;;;5013562;28;20343;-77
2021/10/16 12:10:19;;;;;;;5.88;4.90;;;15.30;76.50;;;;;;5014217;28;20033;-78
2021/10/16 12:13:06;;;;;;;6.67;4.47;;;15.60;75.60;;;;;;5013763;28;20022;-78
2021/10/16 12:15:34;;;;;;;7.40;4.75;;;16.00;74.60;;;;;;4996233;28;20269;-78
2021/10/16 12:18:00;;;;;;;5.95;5.10;;;16.30;73.20;;;;;;4996867;28;20026;-77
2021/10/16 12:20:26;;;;;;;6.88;4.68;;;16.40;72.10;;;;;;4996237;28;20053;-77
2021/10/16 12:22:56;;;;;;;7.72;4.90;;;16.40;71.70;;;;;;5013473;28;20029;-76
2021/10/16 12:25:21;;;;;;;6.20;4.80;;;16.30;72.20;;;;;;5014544;28;20030;-77
2021/10/16 12:27:59;;;;;;;7.75;5.50;;;16.00;72.70;;;;;;5013512;28;20512;-77
2021/10/16 12:30:25;;;;;;;4.82;4.30;;;16.00;72.40;;;;;;5017117;28;20505;-78
2021/10/16 12:33:10;;;;;;;4.88;4.13;;;16.10;72.20;;;;;;5012864;28;20054;-79
2021/10/16 12:35:36;;;;;;;6.40;4.88;;;16.30;71.50;;;;;;5001121;28;20025;-79
2021/10/16 12:38:03;;;;;;;4.03;3.63;;;16.50;68.20;;;;;;5016182;28;20104;-79
2021/10/16 12:40:37;;;;;;;6.68;4.82;;;16.50;69.10;;;;;;5019569;28;20091;-79
2021/10/16 12:43:04;;;;;;;5.45;3.92;;;16.60;68.20;;;;;;5021490;28;20033;-79
2021/10/16 12:45:38;;;;;;;5.90;4.30;;;16.30;67.40;;;;;;5023801;28;20028;-78